Time;durP1;ratioP1;P1;durP2;ratioP2;P2;SDS_P1;SDS_P2;PMS_P1;PMS_P2;Temp;Humidity;BMP_temperature;BMP_pressure;BME280_temperature;BME280_humidity;BME280_pressure;Samples;Min_cycle;Max_cycle;Signal;HPM_P1;HPM_P2
2021/12/03 00:01:13;;;;;;;3.80;2.37;;;;;;;;;;6307973;22;20198;-82
2021/12/03 00:03:41;;;;;;;5.90;2.87;;;;;;;;;;6308305;22;20254;-83
2021/12/03 00:06:10;;;;;;;6.03;2.70;;;;;;;;;;6308312;22;20170;-83
2021/12/03 00:08:39;;;;;;;9.33;2.97;;;;;;;;;;6308053;22;20178;-83
2021/12/03 00:11:10;;;;;;;5.40;3.00;;;;;;;;;;6307881;22;20174;-83
2021/12/03 00:13:39;;;;;;;4.27;2.97;;;;;;;;;;6309053;22;20194;-82
2021/12/03 00:16:08;;;;;;;7.50;3.13;;;;;;;;;;6307718;22;20173;-83
2021/12/03 00:18:36;;;;;;;7.07;3.10;;;;;;;;;;6307869;22;20186;-83
2021/12/03 00:21:08;;;;;;;11.10;4.07;;;;;;;;;;6308356;22;20205;-83
2021/12/03 00:23:36;;;;;;;5.73;4.20;;;;;;;;;;6307427;22;20159;-83
2021/12/03 00:26:05;;;;;;;7.00;4.20;;;;;;;;;;6308340;22;20168;-83
2021/12/03 00:28:37;;;;;;;6.03;4.20;;;;;;;;;;6307654;22;20205;-83
2021/12/03 00:31:06;;;;;;;7.53;4.10;;;;;;;;;;6307953;22;20231;-83
2021/12/03 00:33:35;;;;;;;9.00;4.10;;;;;;;;;;6308118;22;20198;-83
2021/12/03 00:36:06;;;;;;;8.03;4.07;;;;;;;;;;6308085;22;20178;-83
2021/12/03 00:38:38;;;;;;;7.03;3.57;;;;;;;;;;6308155;22;20164;-83
2021/12/03 00:41:08;;;;;;;7.87;3.60;;;;;;;;;;6307916;22;20163;-83
2021/12/03 00:43:41;;;;;;;0.80;0.80;;;;;;;;;;6308118;22;20173;-83
2021/12/03 00:46:12;;;;;;;1.20;1.20;;;;;;;;;;6307617;22;20170;-83
2021/12/03 00:48:40;;;;;;;0.93;0.93;;;;;;;;;;6307841;22;20223;-83
2021/12/03 00:51:10;;;;;;;2.47;2.20;;;;;;;;;;6307692;22;20174;-83
2021/12/03 00:53:39;;;;;;;4.13;2.93;;;;;;;;;;6307443;22;20198;-83
2021/12/03 00:56:08;;;;;;;4.83;3.33;;;;;;;;;;6307861;22;20174;-83
2021/12/03 00:58:38;;;;;;;4.47;2.40;;;;;;;;;;6307730;22;20179;-83
2021/12/03 01:01:07;;;;;;;9.57;2.60;;;;;;;;;;6307681;22;20218;-83
2021/12/03 01:03:37;;;;;;;10.07;3.37;;;;;;;;;;6308036;22;20216;-83
2021/12/03 01:06:06;;;;;;;8.57;3.67;;;;;;;;;;6308014;22;20174;-83
2021/12/03 01:08:35;;;;;;;9.60;3.50;;;;;;;;;;6308156;22;20189;-83
2021/12/03 01:11:05;;;;;;;7.47;3.20;;;;;;;;;;6307785;22;20177;-84
2021/12/03 01:13:33;;;;;;;8.87;3.80;;;;;;;;;;6308679;22;20243;-83
2021/12/03 01:16:04;;;;;;;5.43;3.67;;;;;;;;;;6309930;22;20228;-84
2021/12/03 01:18:32;;;;;;;5.23;2.27;;;;;;;;;;6309976;22;20168;-84
2021/12/03 01:21:01;;;;;;;6.80;3.03;;;;;;;;;;6309372;22;20226;-84
2021/12/03 01:23:29;;;;;;;4.10;2.43;;;;;;;;;;6309418;22;20221;-84
2021/12/03 01:25:58;;;;;;;4.90;2.93;;;;;;;;;;6309462;22;20180;-84
2021/12/03 01:28:27;;;;;;;4.07;2.50;;;;;;;;;;6309518;22;20204;-84
2021/12/03 01:30:56;;;;;;;5.10;3.00;;;;;;;;;;6309604;22;20175;-84
2021/12/03 01:33:26;;;;;;;3.33;2.13;;;;;;;;;;6309481;22;20180;-84
2021/12/03 01:35:54;;;;;;;9.33;2.63;;;;;;;;;;6310085;22;20182;-84
2021/12/03 01:38:25;;;;;;;6.07;2.67;;;;;;;;;;6309701;22;20173;-84
2021/12/03 01:40:53;;;;;;;5.23;3.73;;;;;;;;;;6309765;22;20182;-84
2021/12/03 01:43:23;;;;;;;2.90;2.40;;;;;;;;;;6309416;22;20179;-84
2021/12/03 01:45:52;;;;;;;0.90;0.90;;;;;;;;;;6309573;22;20174;-84
2021/12/03 01:48:21;;;;;;;3.73;3.00;;;;;;;;;;6309901;22;20219;-85
2021/12/03 01:50:52;;;;;;;3.40;2.77;;;;;;;;;;6309479;22;20272;-84
2021/12/03 01:53:24;;;;;;;9.30;3.40;;;;;;;;;;6309151;22;20165;-85
2021/12/03 01:55:53;;;;;;;5.13;2.50;;;;;;;;;;6309145;22;20174;-84
2021/12/03 01:58:21;;;;;;;6.63;2.80;;;;;;;;;;6309566;22;20175;-85
2021/12/03 02:00:53;;;;;;;11.10;3.00;;;;;;;;;;6309198;22;20201;-84
2021/12/03 02:03:23;;;;;;;9.30;3.90;;;;;;;;;;6309688;22;20202;-85
2021/12/03 02:05:54;;;;;;;7.80;3.43;;;;;;;;;;6309291;22;20170;-85
2021/12/03 02:08:22;;;;;;;0.90;0.90;;;;;;;;;;6309040;22;20179;-85
2021/12/03 02:10:52;;;;;;;8.37;3.40;;;;;;;;;;6309064;22;20182;-85
2021/12/03 02:13:20;;;;;;;3.43;2.50;;;;;;;;;;6309476;22;20247;-85
2021/12/03 02:15:49;;;;;;;0.80;0.80;;;;;;;;;;6309880;22;20194;-85
2021/12/03 02:18:21;;;;;;;6.53;2.30;;;;;;;;;;6309183;22;20172;-85
2021/12/03 02:20:53;;;;;;;3.63;2.27;;;;;;;;;;6309454;22;20174;-85
2021/12/03 02:23:22;;;;;;;1.00;1.00;;;;;;;;;;6309351;22;20170;-85
2021/12/03 02:25:51;;;;;;;7.37;2.63;;;;;;;;;;6308642;22;20171;-85
2021/12/03 02:28:21;;;;;;;7.80;2.77;;;;;;;;;;6309175;22;20204;-85
2021/12/03 02:30:50;;;;;;;1.57;1.47;;;;;;;;;;6309480;22;20191;-85
2021/12/03 02:33:19;;;;;;;1.43;1.33;;;;;;;;;;6309140;22;20277;-85
2021/12/03 02:35:47;;;;;;;1.97;1.87;;;;;;;;;;6308567;22;20195;-85
2021/12/03 02:38:18;;;;;;;1.07;1.07;;;;;;;;;;6309142;22;20253;-85
2021/12/03 02:40:48;;;;;;;0.93;0.93;;;;;;;;;;6309149;22;20168;-85
2021/12/03 02:43:16;;;;;;;2.53;2.43;;;;;;;;;;6308836;22;20173;-85
2021/12/03 02:45:45;;;;;;;3.50;2.70;;;;;;;;;;6309123;22;20179;-85
2021/12/03 02:48:13;;;;;;;9.20;2.87;;;;;;;;;;6309030;22;20171;-85
2021/12/03 02:50:41;;;;;;;2.73;1.63;;;;;;;;;;6309182;22;20175;-85
2021/12/03 02:53:10;;;;;;;10.00;3.10;;;;;;;;;;6308596;22;20175;-85
2021/12/03 02:55:40;;;;;;;0.80;0.80;;;;;;;;;;6308640;22;20267;-85
2021/12/03 02:58:12;;;;;;;1.00;1.00;;;;;;;;;;6308659;22;20238;-85
2021/12/03 03:00:42;;;;;;;3.93;1.80;;;;;;;;;;6308526;22;20201;-85
2021/12/03 03:03:10;;;;;;;2.13;1.27;;;;;;;;;;6308477;22;20195;-85
2021/12/03 03:05:39;;;;;;;7.33;2.37;;;;;;;;;;6308942;22;20238;-85
2021/12/03 03:08:08;;;;;;;5.07;2.50;;;;;;;;;;6308804;22;20183;-85
2021/12/03 03:10:41;;;;;;;5.83;2.73;;;;;;;;;;6309169;22;20178;-85
2021/12/03 03:13:12;;;;;;;5.40;1.57;;;;;;;;;;6308964;22;20177;-85
2021/12/03 03:15:40;;;;;;;5.83;3.63;;;;;;;;;;6308742;22;20193;-85
2021/12/03 03:18:11;;;;;;;5.17;3.10;;;;;;;;;;6308883;22;20172;-86
2021/12/03 03:20:40;;;;;;;3.43;2.43;;;;;;;;;;6308417;22;20199;-85
2021/12/03 03:23:09;;;;;;;10.93;3.70;;;;;;;;;;6308435;22;20174;-85
2021/12/03 03:25:37;;;;;;;6.30;2.73;;;;;;;;;;6309033;22;20172;-85
2021/12/03 03:28:06;;;;;;;7.97;3.23;;;;;;;;;;6308254;22;20211;-85
2021/12/03 03:30:37;;;;;;;8.77;3.43;;;;;;;;;;6308315;22;20289;-85
2021/12/03 03:33:05;;;;;;;7.50;2.43;;;;;;;;;;6308404;22;20183;-85
2021/12/03 03:35:34;;;;;;;4.23;2.73;;;;;;;;;;6308259;22;20198;-85
2021/12/03 03:38:03;;;;;;;4.97;2.77;;;;;;;;;;6308163;22;20172;-85
2021/12/03 03:40:31;;;;;;;6.37;3.97;;;;;;;;;;6308608;22;20170;-85
2021/12/03 03:43:00;;;;;;;9.90;4.23;;;;;;;;;;6308736;22;20172;-85
2021/12/03 03:45:29;;;;;;;5.83;4.20;;;;;;;;;;6308007;22;20174;-85
2021/12/03 03:47:59;;;;;;;3.77;2.70;;;;;;;;;;6308724;22;20229;-85
2021/12/03 03:50:28;;;;;;;6.23;2.87;;;;;;;;;;6308465;22;20234;-85
2021/12/03 03:52:57;;;;;;;6.43;2.10;;;;;;;;;;6308067;22;20179;-85
2021/12/03 03:55:26;;;;;;;1.27;1.27;;;;;;;;;;6308157;22;20277;-85
2021/12/03 03:57:56;;;;;;;1.00;1.00;;;;;;;;;;6308110;22;20176;-85
2021/12/03 04:00:25;;;;;;;17.17;2.10;;;;;;;;;;6308532;22;20174;-85
2021/12/03 04:02:54;;;;;;;1.20;1.20;;;;;;;;;;6307768;22;20243;-85
2021/12/03 04:05:24;;;;;;;2.63;1.93;;;;;;;;;;6308109;22;20259;-85
2021/12/03 04:07:52;;;;;;;4.93;2.53;;;;;;;;;;6308217;22;20176;-85
2021/12/03 04:10:22;;;;;;;6.07;2.70;;;;;;;;;;6308505;22;20201;-85
2021/12/03 04:12:50;;;;;;;6.23;3.23;;;;;;;;;;6308230;22;20175;-85
2021/12/03 04:15:19;;;;;;;13.70;4.13;;;;;;;;;;6308474;22;20192;-85
2021/12/03 04:17:48;;;;;;;6.13;3.67;;;;;;;;;;6307946;22;20178;-85
2021/12/03 04:20:18;;;;;;;5.97;3.20;;;;;;;;;;6308332;22;20173;-85
2021/12/03 04:22:48;;;;;;;4.67;2.33;;;;;;;;;;6308282;22;20179;-85
2021/12/03 04:25:17;;;;;;;4.57;2.33;;;;;;;;;;6307930;22;20172;-85
2021/12/03 04:27:46;;;;;;;6.00;2.80;;;;;;;;;;6308143;22;20254;-85
2021/12/03 04:30:17;;;;;;;0.80;0.80;;;;;;;;;;6307897;22;20175;-85
2021/12/03 04:32:45;;;;;;;4.87;2.23;;;;;;;;;;6308578;22;20168;-85
2021/12/03 04:35:14;;;;;;;0.97;0.97;;;;;;;;;;6308080;22;20231;-85
2021/12/03 04:37:42;;;;;;;3.10;2.53;;;;;;;;;;6308189;22;20175;-85
2021/12/03 04:40:13;;;;;;;6.20;2.20;;;;;;;;;;6308378;22;20244;-85
2021/12/03 04:42:42;;;;;;;6.27;2.17;;;;;;;;;;6308029;22;20172;-86
2021/12/03 04:45:11;;;;;;;2.93;2.03;;;;;;;;;;6307623;22;20168;-85
2021/12/03 04:47:39;;;;;;;4.27;2.43;;;;;;;;;;6308125;22;20170;-85
2021/12/03 04:50:09;;;;;;;1.70;1.17;;;;;;;;;;6310344;22;20198;-85
2021/12/03 04:52:37;;;;;;;2.80;2.03;;;;;;;;;;6310313;22;20172;-85
2021/12/03 04:55:06;;;;;;;3.27;1.87;;;;;;;;;;6309901;22;20523;-85
2021/12/03 04:57:36;;;;;;;2.07;1.83;;;;;;;;;;6310450;22;20176;-85
2021/12/03 05:00:06;;;;;;;5.97;2.03;;;;;;;;;;6310195;22;20179;-85
2021/12/03 05:02:34;;;;;;;5.80;3.23;;;;;;;;;;6310053;22;20168;-85
2021/12/03 05:05:05;;;;;;;2.90;1.37;;;;;;;;;;6310103;22;20188;-85
2021/12/03 05:07:53;;;;;;;4.53;1.80;;;;;;;;;;6309726;22;20169;-85
2021/12/03 05:10:21;;;;;;;7.60;2.00;;;;;;;;;;6310248;22;20241;-85
2021/12/03 05:12:51;;;;;;;4.07;2.63;;;;;;;;;;6309667;22;20172;-85
2021/12/03 05:15:31;;;;;;;4.97;2.27;;;;;;;;;;6310061;22;20192;-85
2021/12/03 05:17:59;;;;;;;2.30;1.60;;;;;;;;;;6310298;22;20172;-85
2021/12/03 05:20:28;;;;;;;8.67;3.70;;;;;;;;;;6309561;22;20187;-85
2021/12/03 05:22:57;;;;;;;3.97;2.03;;;;;;;;;;6309609;22;20168;-85
2021/12/03 05:25:25;;;;;;;2.27;1.70;;;;;;;;;;6309897;22;20172;-85
2021/12/03 05:27:56;;;;;;;5.67;1.90;;;;;;;;;;6309754;22;20204;-85
2021/12/03 05:30:24;;;;;;;5.50;2.90;;;;;;;;;;6309641;22;20176;-85
2021/12/03 05:32:53;;;;;;;3.43;2.33;;;;;;;;;;6310218;22;20173;-85
2021/12/03 05:35:22;;;;;;;4.43;2.20;;;;;;;;;;6309224;22;20188;-85
2021/12/03 05:37:50;;;;;;;6.00;2.73;;;;;;;;;;6309663;22;20172;-85
2021/12/03 05:40:19;;;;;;;4.80;1.73;;;;;;;;;;6309831;22;20173;-85
2021/12/03 05:42:48;;;;;;;5.67;3.03;;;;;;;;;;6309175;22;20172;-85
2021/12/03 05:45:21;;;;;;;4.10;2.10;;;;;;;;;;6309445;22;20221;-85
2021/12/03 05:47:49;;;;;;;4.00;1.60;;;;;;;;;;6309679;22;20306;-85
2021/12/03 05:50:18;;;;;;;3.67;2.43;;;;;;;;;;6309336;22;20172;-84
2021/12/03 05:52:49;;;;;;;3.57;2.10;;;;;;;;;;6309385;22;20176;-84
2021/12/03 05:55:17;;;;;;;4.57;2.30;;;;;;;;;;6309346;22;20164;-85
2021/12/03 05:57:47;;;;;;;4.37;2.70;;;;;;;;;;6310094;22;20199;-85
2021/12/03 06:00:17;;;;;;;5.87;1.20;;;;;;;;;;6309275;22;20179;-85
2021/12/03 06:02:47;;;;;;;1.40;1.40;;;;;;;;;;6309446;22;20222;-85
2021/12/03 06:05:15;;;;;;;4.20;1.53;;;;;;;;;;6309772;22;20251;-85
2021/12/03 06:07:44;;;;;;;3.03;1.63;;;;;;;;;;6309481;22;20175;-85
2021/12/03 06:10:12;;;;;;;2.83;1.73;;;;;;;;;;6309271;22;20195;-85
2021/12/03 06:12:43;;;;;;;1.73;1.53;;;;;;;;;;6309461;22;20161;-84
2021/12/03 06:15:11;;;;;;;2.73;1.33;;;;;;;;;;6309083;22;20172;-85
2021/12/03 06:17:40;;;;;;;4.13;1.50;;;;;;;;;;6308998;22;20249;-85
2021/12/03 06:20:11;;;;;;;3.17;2.37;;;;;;;;;;6309082;22;20172;-85
2021/12/03 06:22:39;;;;;;;3.07;1.67;;;;;;;;;;6309266;22;20192;-85
2021/12/03 06:25:09;;;;;;;3.93;1.97;;;;;;;;;;6309333;22;20179;-85
2021/12/03 06:27:38;;;;;;;2.33;1.77;;;;;;;;;;6309060;22;20200;-85
2021/12/03 06:30:08;;;;;;;1.97;1.53;;;;;;;;;;6309351;22;20177;-85
2021/12/03 06:32:36;;;;;;;4.40;2.00;;;;;;;;;;6308996;22;20180;-85
2021/12/03 06:35:06;;;;;;;4.13;1.60;;;;;;;;;;6309137;22;20180;-84
2021/12/03 06:37:36;;;;;;;8.07;2.20;;;;;;;;;;6309354;22;20212;-84
2021/12/03 06:40:05;;;;;;;3.60;1.53;;;;;;;;;;6309573;22;20168;-85
2021/12/03 06:42:33;;;;;;;6.70;2.10;;;;;;;;;;6309504;22;20209;-84
2021/12/03 06:45:05;;;;;;;1.67;1.57;;;;;;;;;;6310021;22;20210;-85
2021/12/03 06:47:33;;;;;;;4.90;1.57;;;;;;;;;;6308687;22;20160;-85
2021/12/03 06:50:04;;;;;;;1.83;1.30;;;;;;;;;;6309043;22;20254;-85
2021/12/03 06:52:33;;;;;;;1.60;1.50;;;;;;;;;;6309087;22;20168;-85
2021/12/03 06:55:04;;;;;;;1.67;1.57;;;;;;;;;;6308562;22;20221;-85
2021/12/03 06:57:32;;;;;;;4.53;2.33;;;;;;;;;;6309264;22;20177;-85
2021/12/03 07:00:05;;;;;;;0.90;0.90;;;;;;;;;;6308865;22;20176;-85
2021/12/03 07:02:33;;;;;;;5.60;2.20;;;;;;;;;;6308551;22;20413;-85
2021/12/03 07:05:06;;;;;;;1.27;1.00;;;;;;;;;;6308829;22;20161;-84
2021/12/03 07:07:34;;;;;;;5.17;2.37;;;;;;;;;;6308714;22;20165;-85
2021/12/03 07:10:04;;;;;;;1.63;1.47;;;;;;;;;;6308849;22;20168;-84
2021/12/03 07:12:33;;;;;;;3.20;1.40;;;;;;;;;;6309036;22;20168;-85
2021/12/03 07:15:02;;;;;;;1.20;1.10;;;;;;;;;;6308390;22;20176;-84
2021/12/03 07:17:32;;;;;;;3.03;1.93;;;;;;;;;;6308807;22;20222;-85
2021/12/03 07:20:06;;;;;;;9.30;3.30;;;;;;;;;;6308651;22;20195;-85
2021/12/03 07:22:34;;;;;;;9.33;2.53;;;;;;;;;;6308997;22;20198;-85
2021/12/03 07:25:05;;;;;;;3.23;1.87;;;;;;;;;;6308075;22;20237;-85
2021/12/03 07:27:33;;;;;;;13.17;2.50;;;;;;;;;;6307516;22;20207;-85
2021/12/03 07:30:02;;;;;;;2.30;1.73;;;;;;;;;;6307221;22;20176;-83
2021/12/03 07:32:33;;;;;;;2.73;2.20;;;;;;;;;;6307895;22;20187;-83
2021/12/03 07:35:26;;;;;;;5.10;2.47;;;;;;;;;;6307517;22;20175;-88
2021/12/03 07:48:47;;;;;;;4.77;1.90;;;;;;;;;;6212701;23;20189;-87
2021/12/03 07:52:00;;;;;;;3.77;2.23;;;;;;;;;;6212453;23;20166;-87
2021/12/03 07:55:00;;;;;;;5.77;5.27;;;;;;;;;;6140374;23;20190;-87
2021/12/03 07:58:05;;;;;;;6.77;3.10;;;;;;;;;;6104831;23;20262;-87
2021/12/03 08:00:54;;;;;;;2.80;1.83;;;;;;;;;;6242251;22;20178;-87
2021/12/03 08:04:05;;;;;;;;;;;;;;;;;;;;;
2021/12/03 08:06:54;;;;;;;4.50;2.07;;;;;;;;;;6242659;22;20181;-86
2021/12/03 08:09:42;;;;;;;1.40;1.30;;;;;;;;;;6241322;23;20201;-87
2021/12/03 08:30:28;;;;;;;1.80;1.43;;;;;;;;;;5980170;23;20178;-87
2021/12/03 08:33:30;;;;;;;3.70;1.57;;;;;;;;;;6069920;23;20179;-87
2021/12/03 08:43:02;;;;;;;1.90;1.60;;;;;;;;;;6148790;23;20179;-86
2021/12/03 08:46:16;;;;;;;4.37;1.50;;;;;;;;;;6141655;23;20183;-87
2021/12/03 08:49:07;;;;;;;4.70;1.90;;;;;;;;;;6114134;23;20189;-86
2021/12/03 08:52:20;;;;;;;;;;;;;;;;;;;;;
2021/12/03 08:55:25;;;;;;;1.07;1.07;;;;;;;;;;6064396;23;20178;-88
2021/12/03 08:58:03;;;;;;;4.53;1.70;;;;;;;;;;6196062;23;20257;-87
2021/12/03 09:01:03;;;;;;;6.10;1.40;;;;;;;;;;6211462;23;20197;-86
2021/12/03 09:03:52;;;;;;;1.27;1.03;;;;;;;;;;6210776;23;20237;-86
2021/12/03 09:06:49;;;;;;;5.30;1.67;;;;;;;;;;6207245;23;20186;-87
2021/12/03 09:09:32;;;;;;;7.00;2.77;;;;;;;;;;6211989;23;20170;-87
2021/12/03 09:12:14;;;;;;;2.40;2.10;;;;;;;;;;6213648;22;20190;-86
2021/12/03 09:17:54;;;;;;;1.37;1.23;;;;;;;;;;6302599;22;20208;-85
2021/12/03 09:20:41;;;;;;;6.30;2.83;;;;;;;;;;6305767;22;20180;-86
2021/12/03 09:23:38;;;;;;;7.43;3.47;;;;;;;;;;6304948;22;20176;-87
2021/12/03 09:26:26;;;;;;;;;;;;;;;;;;;;;
2021/12/03 09:32:58;;;;;;;7.13;4.40;;;;;;;;;;6182162;23;20238;-88
2021/12/03 09:35:36;;;;;;;7.90;4.03;;;;;;;;;;6182508;23;20203;-88
2021/12/03 09:38:30;;;;;;;;;;;;;;;;;;;;;
2021/12/03 09:44:58;;;;;;;11.37;6.13;;;;;;;;;;6065863;23;20185;-87
2021/12/03 09:58:18;;;;;;;11.30;7.30;;;;;;;;;;5943598;24;20203;-88
2021/12/03 10:42:02;;;;;;;2.30;2.13;;;;;;;;;;5942250;24;20186;-87
2021/12/03 11:03:41;;;;;;;7.20;6.20;;;;;;;;;;6034150;23;20179;-89
2021/12/03 12:20:44;;;;;;;5.30;3.50;;;;;;;;;;6067331;23;20205;-87
2021/12/03 12:24:05;;;;;;;4.60;3.70;;;;;;;;;;6164290;22;20183;-88
2021/12/03 13:13:50;;;;;;;3.50;2.70;;;;;;;;;;6308916;22;20168;-88
2021/12/03 14:02:22;;;;;;;3.27;2.97;;;;;;;;;;6305404;22;20200;-89
2021/12/03 14:37:48;;;;;;;5.13;4.63;;;;;;;;;;6295057;22;20202;-87
2021/12/03 14:43:04;;;;;;;3.73;3.43;;;;;;;;;;6307483;22;20205;-87
2021/12/03 14:57:18;;;;;;;5.57;5.07;;;;;;;;;;6307595;22;20172;-86
2021/12/03 15:06:06;;;;;;;4.97;4.57;;;;;;;;;;6300088;22;20243;-86
2021/12/03 15:08:38;;;;;;;4.63;3.93;;;;;;;;;;6306971;22;20172;-87
2021/12/03 15:26:57;;;;;;;;;;;;;;;;;;;;;
2021/12/03 15:32:41;;;;;;;3.17;2.87;;;;;;;;;;6259495;22;20168;-85
2021/12/03 15:35:18;;;;;;;3.80;3.50;;;;;;;;;;6307613;22;20218;-87
2021/12/03 15:52:15;;;;;;;5.33;4.93;;;;;;;;;;6309264;22;20191;-87
2021/12/03 16:08:45;;;;;;;4.57;4.27;;;;;;;;;;6271606;22;20172;-88
2021/12/03 16:11:22;;;;;;;9.30;8.50;;;;;;;;;;6308177;22;20164;-86
2021/12/03 16:13:59;;;;;;;8.77;7.80;;;;;;;;;;6308124;22;20182;-85
2021/12/03 16:25:05;;;;;;;11.63;10.43;;;;;;;;;;6306975;22;20172;-85
2021/12/03 16:44:32;;;;;;;24.93;22.70;;;;;;;;;;6308261;22;20391;-85
2021/12/03 16:47:07;;;;;;;28.47;26.07;;;;;;;;;;6309813;22;20172;-86
2021/12/03 16:52:29;;;;;;;17.37;15.90;;;;;;;;;;6310068;22;20210;-86
2021/12/03 16:55:14;;;;;;;25.33;23.10;;;;;;;;;;6309969;22;20172;-85
2021/12/03 16:57:44;;;;;;;23.00;20.90;;;;;;;;;;6310148;22;20172;-86
2021/12/03 17:00:20;;;;;;;21.13;16.83;;;;;;;;;;6310276;22;20189;-85
2021/12/03 17:02:53;;;;;;;21.27;19.23;;;;;;;;;;6309952;22;20197;-86
2021/12/03 17:11:31;;;;;;;29.60;26.63;;;;;;;;;;6309947;22;20192;-85
2021/12/03 17:45:21;;;;;;;21.07;14.73;;;;;;;;;;6309531;22;20200;-85
2021/12/03 17:50:57;;;;;;;31.80;27.67;;;;;;;;;;6275030;22;20172;-85
2021/12/03 17:53:49;;;;;;;28.20;25.20;;;;;;;;;;6309494;22;20172;-85
2021/12/03 17:56:18;;;;;;;24.73;21.23;;;;;;;;;;6309095;22;20171;-85
2021/12/03 17:58:50;;;;;;;36.80;33.20;;;;;;;;;;6309210;22;20172;-86
2021/12/03 18:01:22;;;;;;;8.57;7.63;;;;;;;;;;6309881;22;20188;-85
2021/12/03 18:04:00;;;;;;;27.73;21.80;;;;;;;;;;6309306;22;20200;-85
2021/12/03 18:06:51;;;;;;;36.33;32.63;;;;;;;;;;6309763;22;20161;-86
2021/12/03 18:45:45;;;;;;;30.47;27.17;;;;;;;;;;6308893;22;20234;-85
2021/12/03 18:51:08;;;;;;;30.23;24.63;;;;;;;;;;6277270;22;20188;-86
2021/12/03 18:54:02;;;;;;;22.90;20.47;;;;;;;;;;6309127;22;20234;-86
2021/12/03 18:56:42;;;;;;;18.23;14.40;;;;;;;;;;6309213;22;20169;-86
2021/12/03 18:59:10;;;;;;;12.87;11.40;;;;;;;;;;6308695;22;20177;-86
2021/12/03 19:01:43;;;;;;;27.17;24.30;;;;;;;;;;6308962;22;20192;-85
2021/12/03 19:04:21;;;;;;;26.70;23.83;;;;;;;;;;6308625;22;20192;-86
2021/12/03 19:06:53;;;;;;;23.67;21.23;;;;;;;;;;6308798;22;20168;-85
2021/12/03 19:09:24;;;;;;;31.60;28.43;;;;;;;;;;6308973;22;20192;-85
2021/12/03 19:12:02;;;;;;;24.17;18.97;;;;;;;;;;6309380;22;20157;-86
2021/12/03 19:14:34;;;;;;;35.17;32.10;;;;;;;;;;6308262;22;20172;-85
2021/12/03 19:17:03;;;;;;;32.53;29.13;;;;;;;;;;6308746;22;20222;-85
2021/12/03 19:19:37;;;;;;;27.90;24.93;;;;;;;;;;6308397;22;20172;-85
2021/12/03 19:22:06;;;;;;;34.57;31.33;;;;;;;;;;6308912;22;20199;-86
2021/12/03 19:24:34;;;;;;;26.87;22.50;;;;;;;;;;6308597;22;20195;-85
2021/12/03 19:27:03;;;;;;;29.70;26.47;;;;;;;;;;6308296;22;20172;-85
2021/12/03 19:29:33;;;;;;;35.87;32.30;;;;;;;;;;6308567;22;20180;-85
2021/12/03 19:32:02;;;;;;;38.10;30.80;;;;;;;;;;6309115;22;20168;-86
2021/12/03 19:34:30;;;;;;;32.17;26.73;;;;;;;;;;6308253;22;20222;-85
2021/12/03 19:37:02;;;;;;;38.70;30.80;;;;;;;;;;6308261;22;20222;-85
2021/12/03 19:39:31;;;;;;;34.80;27.10;;;;;;;;;;6308222;22;20172;-86
2021/12/03 19:42:05;;;;;;;29.93;26.83;;;;;;;;;;6308223;22;20199;-86
2021/12/03 19:44:41;;;;;;;27.63;23.33;;;;;;;;;;6308115;22;20204;-86
2021/12/03 19:47:11;;;;;;;37.73;34.13;;;;;;;;;;6308552;22;20255;-85
2021/12/03 19:49:49;;;;;;;35.77;32.40;;;;;;;;;;6308146;22;20187;-86
2021/12/03 19:52:27;;;;;;;42.13;38.63;;;;;;;;;;6308825;22;20166;-85
2021/12/03 19:54:56;;;;;;;28.73;25.47;;;;;;;;;;6308159;22;20171;-85
2021/12/03 19:57:27;;;;;;;22.27;17.27;;;;;;;;;;6308509;22;20172;-86
2021/12/03 19:59:55;;;;;;;24.33;21.73;;;;;;;;;;6308476;22;20164;-85
2021/12/03 20:02:24;;;;;;;18.93;16.90;;;;;;;;;;6308741;22;20227;-85
2021/12/03 20:04:52;;;;;;;23.37;21.10;;;;;;;;;;6308729;22;20193;-85
2021/12/03 20:07:23;;;;;;;30.90;28.00;;;;;;;;;;6308163;22;20180;-86
2021/12/03 20:09:58;;;;;;;25.63;22.87;;;;;;;;;;6308545;22;20237;-85
2021/12/03 20:12:29;;;;;;;28.57;25.73;;;;;;;;;;6308667;22;20160;-85
2021/12/03 20:14:57;;;;;;;26.97;23.80;;;;;;;;;;6308581;22;20168;-85
2021/12/03 20:17:29;;;;;;;21.97;16.53;;;;;;;;;;6308148;22;20175;-85
2021/12/03 20:19:59;;;;;;;23.17;20.53;;;;;;;;;;6307944;22;20179;-85
2021/12/03 20:22:38;;;;;;;20.67;18.30;;;;;;;;;;6307925;22;20192;-85
2021/12/03 20:27:59;;;;;;;31.10;28.00;;;;;;;;;;6297169;22;20172;-85
2021/12/03 20:30:36;;;;;;;34.80;31.67;;;;;;;;;;6308072;22;20168;-85
2021/12/03 20:33:13;;;;;;;28.77;25.77;;;;;;;;;;6309082;22;20161;-85
2021/12/03 20:38:27;;;;;;;19.33;16.13;;;;;;;;;;6308537;22;20186;-86
2021/12/03 20:41:00;;;;;;;32.93;27.27;;;;;;;;;;6308110;22;20172;-85
2021/12/03 20:43:40;;;;;;;11.37;10.13;;;;;;;;;;6307908;22;20168;-85
2021/12/03 20:49:17;;;;;;;23.43;17.63;;;;;;;;;;6297221;22;20168;-85
2021/12/03 20:52:06;;;;;;;28.30;25.27;;;;;;;;;;6308552;22;20161;-85
2021/12/03 20:54:41;;;;;;;25.33;18.37;;;;;;;;;;6308233;22;20168;-85
2021/12/03 20:57:17;;;;;;;20.73;17.70;;;;;;;;;;6308502;22;20160;-85
2021/12/03 21:08:22;;;;;;;26.37;20.80;;;;;;;;;;6244016;23;20178;-84
2021/12/03 21:10:55;;;;;;;17.00;14.67;;;;;;;;;;6298383;22;20176;-84
2021/12/03 21:13:28;;;;;;;16.50;12.80;;;;;;;;;;6308082;22;20168;-85
2021/12/03 21:16:12;;;;;;;12.57;9.90;;;;;;;;;;6308181;22;20172;-85
2021/12/03 21:18:47;;;;;;;22.63;19.10;;;;;;;;;;6307904;22;20169;-85
2021/12/03 21:21:21;;;;;;;25.97;17.23;;;;;;;;;;6307725;22;20179;-85
2021/12/03 21:23:49;;;;;;;31.83;28.53;;;;;;;;;;6307902;22;20179;-85
2021/12/03 21:26:22;;;;;;;28.83;25.60;;;;;;;;;;6308127;22;20177;-84
2021/12/03 21:29:00;;;;;;;25.77;19.00;;;;;;;;;;6308303;22;20211;-85
2021/12/03 21:31:33;;;;;;;31.20;24.83;;;;;;;;;;6309338;22;20165;-85
2021/12/03 21:40:05;;;;;;;34.93;31.10;;;;;;;;;;6283378;22;20173;-85
2021/12/03 21:42:35;;;;;;;19.40;15.33;;;;;;;;;;6309592;22;20192;-84
2021/12/03 21:45:04;;;;;;;37.40;30.57;;;;;;;;;;6309839;22;20238;-84
2021/12/03 21:47:33;;;;;;;38.87;31.10;;;;;;;;;;6309898;22;20172;-84
2021/12/03 21:50:01;;;;;;;44.60;30.90;;;;;;;;;;6309239;22;20176;-85
2021/12/03 21:52:30;;;;;;;34.10;21.87;;;;;;;;;;6309319;22;20168;-84
2021/12/03 21:54:58;;;;;;;31.80;24.43;;;;;;;;;;6309224;22;20207;-84
2021/12/03 21:57:27;;;;;;;36.23;27.70;;;;;;;;;;6309372;22;20168;-84
2021/12/03 21:59:57;;;;;;;41.37;33.03;;;;;;;;;;6309737;22;20169;-84
2021/12/03 22:02:25;;;;;;;36.80;27.03;;;;;;;;;;6309688;22;20195;-84
2021/12/03 22:04:53;;;;;;;34.43;28.07;;;;;;;;;;6309484;22;20202;-84
2021/12/03 22:07:22;;;;;;;32.80;22.67;;;;;;;;;;6309701;22;20172;-84
2021/12/03 22:09:51;;;;;;;43.33;35.17;;;;;;;;;;6309317;22;20195;-84
2021/12/03 22:12:19;;;;;;;38.50;29.07;;;;;;;;;;6309468;22;20169;-84
2021/12/03 22:14:47;;;;;;;36.03;27.57;;;;;;;;;;6309488;22;20202;-84
2021/12/03 22:17:17;;;;;;;26.87;16.30;;;;;;;;;;6309056;22;20243;-84
2021/12/03 22:19:46;;;;;;;39.07;26.27;;;;;;;;;;6309465;22;20172;-84
2021/12/03 22:22:14;;;;;;;37.63;25.50;;;;;;;;;;6308857;22;20188;-84
2021/12/03 22:24:43;;;;;;;42.57;31.70;;;;;;;;;;6309922;22;20202;-84
2021/12/03 22:27:12;;;;;;;30.97;19.37;;;;;;;;;;6309226;22;20218;-85
2021/12/03 22:29:40;;;;;;;45.70;31.83;;;;;;;;;;6309735;22;20268;-84
2021/12/03 22:32:09;;;;;;;42.23;27.70;;;;;;;;;;6308844;22;20202;-85
2021/12/03 22:34:39;;;;;;;46.97;31.63;;;;;;;;;;6308957;22;20172;-85
2021/12/03 22:37:07;;;;;;;40.97;26.57;;;;;;;;;;6309464;22;20172;-85
2021/12/03 22:39:36;;;;;;;48.30;34.03;;;;;;;;;;6308989;22;20168;-85
2021/12/03 22:42:05;;;;;;;47.00;30.13;;;;;;;;;;6308909;22;20176;-85
2021/12/03 22:44:33;;;;;;;52.80;35.73;;;;;;;;;;6308646;22;20205;-85
2021/12/03 22:47:13;;;;;;;43.03;28.37;;;;;;;;;;6309514;22;20168;-85
2021/12/03 22:50:16;;;;;;;42.17;26.23;;;;;;;;;;6309459;22;20168;-85
2021/12/03 22:52:46;;;;;;;30.50;18.23;;;;;;;;;;6309125;22;20225;-85
2021/12/03 22:55:14;;;;;;;50.43;33.63;;;;;;;;;;6309483;22;20190;-85
2021/12/03 22:57:43;;;;;;;35.33;21.90;;;;;;;;;;6308595;22;20177;-85
2021/12/03 23:00:33;;;;;;;45.37;24.53;;;;;;;;;;6309284;22;20168;-84
2021/12/03 23:03:02;;;;;;;47.80;27.27;;;;;;;;;;6309526;22;20200;-84
2021/12/03 23:05:31;;;;;;;56.00;35.70;;;;;;;;;;6308565;22;20226;-84
2021/12/03 23:08:00;;;;;;;49.63;30.73;;;;;;;;;;6308993;22;20206;-84
2021/12/03 23:10:28;;;;;;;27.43;14.37;;;;;;;;;;6308709;22;20274;-85
2021/12/03 23:12:57;;;;;;;39.53;24.70;;;;;;;;;;6309182;22;20165;-84
2021/12/03 23:15:26;;;;;;;46.53;30.33;;;;;;;;;;6308318;22;20230;-84
2021/12/03 23:17:55;;;;;;;55.00;32.73;;;;;;;;;;6309013;22;20172;-84
2021/12/03 23:20:23;;;;;;;54.23;36.03;;;;;;;;;;6308473;22;20226;-84
2021/12/03 23:22:55;;;;;;;46.23;29.10;;;;;;;;;;6308579;22;20216;-84
2021/12/03 23:25:24;;;;;;;54.97;33.13;;;;;;;;;;6308436;22;20172;-83
2021/12/03 23:27:52;;;;;;;54.57;30.60;;;;;;;;;;6308424;22;20173;-84
2021/12/03 23:30:21;;;;;;;45.33;28.03;;;;;;;;;;6308483;22;20173;-84
2021/12/03 23:32:49;;;;;;;57.77;32.23;;;;;;;;;;6308404;22;20169;-84
2021/12/03 23:35:17;;;;;;;54.77;30.67;;;;;;;;;;6308472;22;20172;-84
2021/12/03 23:37:51;;;;;;;59.77;37.43;;;;;;;;;;6308653;22;20165;-84
2021/12/03 23:40:22;;;;;;;66.77;41.40;;;;;;;;;;6308294;22;20221;-84
2021/12/03 23:42:50;;;;;;;52.30;30.60;;;;;;;;;;6308082;22;20195;-84
2021/12/03 23:45:18;;;;;;;44.07;23.73;;;;;;;;;;6308480;22;20200;-84
2021/12/03 23:47:47;;;;;;;51.20;30.53;;;;;;;;;;6308832;22;20255;-84